Flight Number: EUR1034 Duration: 2:30
Departure: Gibraltar Airport (LXGB) at 18:15 Distance: 927 Nm
Arrival: Gatwick Airport (EGKK) at 20:45 Equipment: B737

Weather Information
Gibraltar, Gibraltar (LXGB) 36-09N 005-21W 0M May 23, 2018 - 07:50 PM EDT / 2018.05.23 2350 UTC
Wind: from the SSW (200 degrees) at 9 MPH (8 KT):0
Visibility: greater than 7 mile(s):0 Temperature: 66 F (19 C) Dew Point: 57 F (14 C) Relative Humidity: 72% Pressure (altimeter): 29.94 in. Hg (1014 hPa)
ob: LXGB 232350Z AUTO 20008KT 9999 // NCD 19/14 Q1014 cycle: 0
Sunrise: 05:12 Sunset: 19:24 (UTC)

London / Gatwick Airport, United Kingdom (EGKK) 51-09N 000-11W 0M May 23, 2018 - 08:20 PM EDT / 2018.05.24 0020 UTC
Wind: from the N (010 degrees) at 9 MPH (8 KT):0
Visibility: 5 mile(s):0 Weather: light rain Temperature: 55 F (13 C) Dew Point: 50 F (10 C) Relative Humidity: 81% Pressure (altimeter): 30.15 in. Hg (1021 hPa)
ob: EGKK 240020Z 01008KT 9000 -RA NSC 13/10 Q1021 cycle: 0
Sunrise: 04:02 Sunset: 19:52 (UTC)

TAF:2018/05/23 18:15 TAF EGKK 231705Z 2318/2424 02010KT 9999 SCT030 PROB30 TEMPO 2318/2321 7000 SHRA TEMPO 2321/2418 6000 SHRA PROB30 TEMPO 2323/2406 4000 +SHRA PROB40 TEMPO 2410/2418 04015G25KT 4000 +SHRA BECMG 2418/2421 VRB03KT

Previous Pireps for this route
Date Aircraft Flight time Fuel used Landing rate On time
2012-07-22A3212.34352320Yes
2012-10-22A32102.320-976No
2012-10-30B73702.3515895-108No
2012-12-08B73703.0326366-334No
2012-12-11B7373.30177380No
2012-12-19B73702.4013457-575Yes
2013-02-23A32102.4723871-578Yes
2013-03-06A3212.2615429-317No
2013-03-08A32102.3019660-345Yes
2013-08-24A32102.5818907-216No
2013-09-19A3212100670No
2013-11-05A32103.0318549-516No
2015-01-04B7372,30150000Yes
2015-05-28A3212.4213020No
2015-12-07A32102.2423115-155No
2016-01-02A32102.3514533-41Yes
2016-07-26A3212.0320203.80No
2016-10-19B73702.3722283-201No
2017-01-21B73702.2319792-121Yes
2018-02-22B73703.0618322-405No
(pireps marked green are flown by you)

Route map